Meteoliendo - El tiempo en Liendo - Informes METAR de Aeropuertos cercanos

Informes METAR de Aeropuertos cercanos

 

LEXJ - Santander
Actualización: 26/04/2017 05:30
Muy nuboso
Muy nuboso
 Viento del SO
Viento: SO 13 km/h
Temperatura: 8°C
Wind Chill: 6°C
Rocío: 7°C
Humedad: 93%
Barómetro: 1014 hPa
Clouds: Muy nuboso
Visibility: 10 km
Cloud details: Few Clouds 305 m
Parcialmente nuboso 1036 m
Muy nuboso 2591 m
2017/04/26 03:30 LEXJ 260330Z 22007KT 9999 FEW010 SCT034 BKN085 08/07 Q1014
LEAS - Asturias/Aviles
Actualización: 26/04/2017 05:30
Lluvia débil, Cubierto
Lluvia débil, Cubierto
 Viento del varies
Viento: varies 4 km/h
Temperatura: 6°C
Rocío: 6°C
Humedad: 100%
Barómetro: 1015 hPa
Resumen: Lluvia débil
Clouds: Cubierto
Visibility: 5 km
Cloud details: Cubierto 427 m
2017/04/26 03:30 LEAS 260330Z AUTO VRB02KT 5000 -RA VV014 06/06 Q1015
LEBB - Bilbao
Actualización: 26/04/2017 05:30
Lluvia débil, Muy nuboso
Lluvia débil, Muy nuboso
 Viento del ONO
Viento: ONO 6 km/h
Temperatura: 8°C
Rocío: 7°C
Humedad: 93%
Barómetro: 1014 hPa
Resumen: Lluvia débil
Clouds: Muy nuboso
Visibility: 10 km
Cloud details: Parcialmente nuboso 762 m
Muy nuboso 1067 m
2017/04/26 03:30 LEBB 260330Z 30003KT 260V340 9999 -RA SCT025 BKN035 08/07 Q1014 TEMPO 3000 RA
 
LEBG - Burgos/Villafría
Actualización: 26/04/2017 05:30
Cubierto
Cubierto
 Viento del N
Viento: N 20 km/h
Temperatura: 4°C
Wind Chill: -1°C
Rocío: 3°C
Humedad: 93%
Barómetro: 1010 hPa
Clouds: Cubierto
Visibility: 10 km
Cloud details: Cubierto 244 m
2017/04/26 03:30 LEBG 260330Z AUTO 01011KT 340V040 9999 OVC008/// 04/03 Q1010
LELO - Logroño
Actualización: 25/04/2017 23:00
NOT Current
Muy nuboso
Muy nuboso
 Viento del O
Viento: O 17 km/h
Temperatura: 10°C
Wind Chill: 8°C
Rocío: 9°C
Humedad: 94%
Barómetro: 1010 hPa
Clouds: Muy nuboso
Visibility: 10 km
Cloud details: Few Clouds 1219 m
Muy nuboso 1829 m
2017/04/25 21:00 LELO 252100Z 28009KT 9999 FEW040 BKN060 10/09 Q1010 RERA
LEPP - Pamplona
Actualización: 26/04/2017 05:30
Muy nuboso
Muy nuboso
 Viento del NO
Viento: NO 24 km/h
Temperatura: 8°C
Wind Chill: 4°C
Rocío: 6°C
Humedad: 87%
Barómetro: 1009 hPa
Clouds: Muy nuboso
Visibility: 9 km
Cloud details: Muy nuboso 549 m
Muy nuboso 762 m
2017/04/26 03:30 LEPP 260330Z 31013KT 270V330 9000 BKN018 BKN025 08/06 Q1009
 
LESO - San Sebastián
Actualización: 26/04/2017 05:30
Lluvia débil, Muy nuboso
Lluvia débil, Muy nuboso
 Viento del N
Viento: N 15 km/h
Temperatura: 9°C
Wind Chill: 7°C
Rocío: 7°C
Humedad: 87%
Barómetro: 1013 hPa
Resumen: Lluvia débil
Clouds: Muy nuboso
Visibility: 10 km
Cloud details: Parcialmente nuboso 305 m
Muy nuboso 853 m
2017/04/26 03:30 LESO 260330Z 35008KT 280V030 9999 -RA SCT010 BKN028 09/07 Q1013
LEST - Santiago de Compostela
Actualización: 26/04/2017 05:30
Despejado
Despejado
 Viento del NNE
Viento: NNE 15 km/h
Temperatura: 5°C
Wind Chill: 2°C
Rocío: 2°C
Humedad: 81%
Barómetro: 1015 hPa
Resumen: Despejado
Visibility: greater than 10 km
2017/04/26 03:30 LEST 260330Z 02008KT 340V060 CAVOK 05/02 Q1015 TEMPO BKN010
LEVT - Vitoria
Actualización: 26/04/2017 05:30
Muy nuboso
Muy nuboso
 Viento del N
Viento: N 7 km/h
Temperatura: 5°C
Wind Chill: 3°C
Rocío: 3°C
Humedad: 87%
Barómetro: 1011 hPa
Clouds: Muy nuboso
Visibility: 10 km
Cloud details: Few Clouds 305 m
Muy nuboso 762 m
2017/04/26 03:30 LEVT 260330Z 36004KT 310V050 9999 FEW010 BKN025 05/03 Q1011